createdAt,value
2018-09-09T00:01:46.541Z,22.26
2018-09-09T00:04:15.545Z,22.28
2018-09-09T00:06:44.553Z,22.25
2018-09-09T00:09:17.804Z,22.19
2018-09-09T00:11:47.808Z,22.28
2018-09-09T00:14:16.705Z,22.27
2018-09-09T00:16:45.703Z,22.20
2018-09-09T00:19:14.564Z,22.22
2018-09-09T00:21:43.456Z,22.19
2018-09-09T00:24:12.349Z,22.16
2018-09-09T00:26:41.351Z,22.16
2018-09-09T00:29:10.430Z,22.16
2018-09-09T00:31:39.329Z,22.15
2018-09-09T00:34:08.165Z,22.14
2018-09-09T00:36:37.072Z,22.15
2018-09-09T00:39:07.798Z,22.16
2018-09-09T00:41:36.746Z,22.17
2018-09-09T00:44:05.660Z,22.15
2018-09-09T00:46:37.659Z,22.14
2018-09-09T00:49:11.747Z,22.11
2018-09-09T00:51:45.655Z,22.08
2018-09-09T00:54:14.569Z,22.08
2018-09-09T00:56:43.596Z,22.10
2018-09-09T00:59:12.886Z,22.10
2018-09-09T01:01:41.791Z,22.06
2018-09-09T01:04:10.802Z,22.06
2018-09-09T01:06:39.687Z,22.05
2018-09-09T01:09:10.038Z,22.06
2018-09-09T01:11:38.905Z,22.02
2018-09-09T01:14:07.903Z,21.98
2018-09-09T01:16:36.887Z,21.92
2018-09-09T01:19:05.891Z,21.94
2018-09-09T01:21:34.703Z,21.93
2018-09-09T01:24:03.592Z,21.97
2018-09-09T01:26:32.461Z,21.94
2018-09-09T01:29:01.501Z,21.89
2018-09-09T01:31:30.373Z,21.88
2018-09-09T01:34:02.895Z,21.89
2018-09-09T01:36:31.741Z,21.85
2018-09-09T01:39:00.610Z,21.87
2018-09-09T01:41:29.931Z,21.86
2018-09-09T01:43:58.847Z,21.82
2018-09-09T01:46:27.767Z,21.84
2018-09-09T01:48:56.938Z,21.81
2018-09-09T01:51:25.994Z,21.81
2018-09-09T01:53:54.823Z,21.82
2018-09-09T01:56:23.658Z,21.81
2018-09-09T01:58:52.560Z,21.81
2018-09-09T02:01:21.497Z,21.80
2018-09-09T02:03:50.384Z,21.83
2018-09-09T02:06:19.257Z,21.81
2018-09-09T02:08:52.388Z,21.78
2018-09-09T02:11:21.396Z,21.77
2018-09-09T02:13:50.498Z,21.78
2018-09-09T02:16:19.380Z,21.75
2018-09-09T02:18:48.381Z,21.74
2018-09-09T02:21:17.307Z,21.69
2018-09-09T02:23:46.162Z,21.66
2018-09-09T02:26:14.969Z,21.57
2018-09-09T02:28:43.828Z,21.54
2018-09-09T02:31:12.768Z,21.58
2018-09-09T02:33:42.829Z,21.51
2018-09-09T02:36:11.684Z,21.51
2018-09-09T02:38:40.906Z,21.48
2018-09-09T02:41:09.888Z,21.48
2018-09-09T02:43:38.866Z,21.46
2018-09-09T02:46:08.037Z,21.39
2018-09-09T02:48:36.936Z,21.30
2018-09-09T02:51:05.790Z,21.29
2018-09-09T02:53:34.703Z,21.29
2018-09-09T02:56:08.379Z,21.29
2018-09-09T02:58:37.532Z,21.28
2018-09-09T03:01:06.722Z,21.24
2018-09-09T03:03:35.648Z,21.22
2018-09-09T03:06:05.003Z,21.23
2018-09-09T03:08:33.841Z,21.21
2018-09-09T03:11:08.108Z,21.18
2018-09-09T03:13:37.370Z,21.16
2018-09-09T03:16:06.381Z,21.16
2018-09-09T03:18:35.318Z,21.14
2018-09-09T03:21:04.161Z,21.15
2018-09-09T03:23:36.190Z,21.12
2018-09-09T03:26:05.204Z,21.12
2018-09-09T03:28:34.344Z,21.08
2018-09-09T03:31:03.325Z,21.07
2018-09-09T03:33:32.277Z,21.05
2018-09-09T03:36:01.175Z,21.06
2018-09-09T03:38:30.066Z,21.04
2018-09-09T03:40:58.987Z,21.06
2018-09-09T03:43:27.910Z,21.02
2018-09-09T03:45:56.964Z,21.02
2018-09-09T03:48:26.024Z,21.02
2018-09-09T03:50:54.895Z,21.01
2018-09-09T03:53:24.944Z,21.04
2018-09-09T03:55:54.021Z,21.06
2018-09-09T03:58:22.819Z,21.03
2018-09-09T04:00:52.395Z,21.07
2018-09-09T04:03:21.281Z,21.11
2018-09-09T04:05:50.090Z,21.11
2018-09-09T04:08:19.508Z,21.12
2018-09-09T04:10:48.517Z,21.16
2018-09-09T04:13:17.361Z,21.18
2018-09-09T04:15:46.572Z,21.18
2018-09-09T04:18:16.755Z,21.22
2018-09-09T04:20:45.739Z,21.22
2018-09-09T04:23:15.125Z,21.26
2018-09-09T04:25:44.033Z,21.27
2018-09-09T04:28:12.931Z,21.35
2018-09-09T04:30:42.139Z,21.40
2018-09-09T04:33:11.077Z,21.45
2018-09-09T04:35:40.067Z,21.54
2018-09-09T04:38:09.100Z,21.57
2018-09-09T04:40:38.012Z,21.66
2018-09-09T04:43:06.850Z,21.76
2018-09-09T04:45:36.097Z,21.80
2018-09-09T04:48:04.995Z,21.86
2018-09-09T04:50:34.009Z,21.88
2018-09-09T04:53:02.908Z,22.01
2018-09-09T04:55:31.809Z,22.09
2018-09-09T04:58:00.685Z,22.13
2018-09-09T05:00:29.704Z,22.20
2018-09-09T05:02:58.580Z,22.28
2018-09-09T05:05:27.559Z,22.34
2018-09-09T05:07:56.588Z,22.39
2018-09-09T05:10:25.430Z,22.43
2018-09-09T05:12:54.401Z,22.48
2018-09-09T05:15:23.474Z,22.49
2018-09-09T05:17:52.421Z,22.45
2018-09-09T05:20:21.268Z,22.53
2018-09-09T05:22:50.117Z,22.54
2018-09-09T05:25:19.048Z,22.51
2018-09-09T05:27:48.000Z,22.58
2018-09-09T05:30:17.368Z,22.59
2018-09-09T05:32:46.262Z,22.63
2018-09-09T05:35:15.199Z,22.67
2018-09-09T05:37:44.181Z,22.76
2018-09-09T05:40:13.188Z,22.81
2018-09-09T05:42:41.995Z,22.83
2018-09-09T05:45:11.665Z,22.91
2018-09-09T05:47:40.596Z,22.94
2018-09-09T05:50:09.640Z,22.99
2018-09-09T05:52:38.549Z,23.06
2018-09-09T05:55:07.537Z,23.10
2018-09-09T05:57:36.345Z,23.14
2018-09-09T06:00:05.447Z,23.20
2018-09-09T06:02:34.490Z,23.23
2018-09-09T06:05:06.657Z,23.23
2018-09-09T06:07:35.521Z,23.31
2018-09-09T06:10:04.473Z,23.35
2018-09-09T06:12:33.401Z,23.39
2018-09-09T06:15:02.381Z,23.47
2018-09-09T06:17:31.348Z,23.51
2018-09-09T06:20:00.588Z,23.58
2018-09-09T06:22:29.472Z,23.58
2018-09-09T06:24:59.352Z,23.64
2018-09-09T06:27:28.258Z,23.73
2018-09-09T06:29:57.292Z,23.87
2018-09-09T06:32:26.290Z,23.84
2018-09-09T06:34:55.306Z,23.93
2018-09-09T06:37:25.296Z,24.05
2018-09-09T06:39:54.223Z,24.09
2018-09-09T06:42:23.466Z,24.15
2018-09-09T06:44:52.357Z,24.27
2018-09-09T06:47:21.160Z,24.26
2018-09-09T06:49:50.511Z,24.31
2018-09-09T06:52:19.358Z,24.39
2018-09-09T06:54:48.205Z,24.45
2018-09-09T06:57:17.090Z,24.47
2018-09-09T06:59:46.022Z,24.65
2018-09-09T07:02:18.482Z,24.73
2018-09-09T07:04:47.408Z,24.82
2018-09-09T07:07:16.363Z,24.81
2018-09-09T07:09:45.344Z,24.87
2018-09-09T07:12:14.356Z,24.88
2018-09-09T07:14:43.175Z,24.92
2018-09-09T07:17:12.502Z,25.03
2018-09-09T07:19:42.332Z,25.15
2018-09-09T07:22:11.287Z,25.09
2018-09-09T07:24:40.926Z,25.14
2018-09-09T07:27:09.858Z,25.27
2018-09-09T07:29:38.837Z,25.35
2018-09-09T07:32:08.248Z,25.48
2018-09-09T07:34:37.167Z,25.57
2018-09-09T07:37:06.043Z,25.69
2018-09-09T07:39:35.063Z,25.74
2018-09-09T07:42:04.466Z,25.61
2018-09-09T07:44:33.423Z,25.62
2018-09-09T07:47:02.729Z,25.76
2018-09-09T07:49:31.717Z,25.90
2018-09-09T07:52:00.612Z,25.93
2018-09-09T07:54:29.888Z,25.79
2018-09-09T07:56:59.776Z,25.73
2018-09-09T07:59:28.711Z,25.82
2018-09-09T08:01:58.103Z,26.02
2018-09-09T08:04:26.942Z,26.09
2018-09-09T08:06:55.833Z,26.23
2018-09-09T08:09:24.983Z,26.32
2018-09-09T08:11:53.962Z,26.26
2018-09-09T08:14:22.890Z,26.25
2018-09-09T08:16:51.896Z,26.40
2018-09-09T08:19:21.161Z,26.55
2018-09-09T08:21:49.979Z,26.67
2018-09-09T08:24:19.824Z,26.80
2018-09-09T08:26:48.677Z,26.99
2018-09-09T08:29:17.530Z,27.11
2018-09-09T08:31:46.825Z,27.01
2018-09-09T08:34:15.612Z,27.10
2018-09-09T08:36:45.676Z,27.16
2018-09-09T08:39:14.730Z,27.19
2018-09-09T08:41:43.663Z,27.17
2018-09-09T08:44:12.657Z,27.23
2018-09-09T08:46:41.817Z,27.37
2018-09-09T08:49:10.626Z,27.44
2018-09-09T08:51:39.447Z,27.57
2018-09-09T08:54:08.490Z,27.60
2018-09-09T08:56:37.282Z,27.69
2018-09-09T08:59:06.342Z,27.85
2018-09-09T09:01:35.720Z,27.84
2018-09-09T09:04:04.622Z,27.95
2018-09-09T09:06:33.545Z,28.09
2018-09-09T09:09:02.477Z,28.18
2018-09-09T09:11:31.408Z,28.21
2018-09-09T09:14:00.317Z,28.28
2018-09-09T09:16:29.293Z,28.19
2018-09-09T09:34:58.876Z,28.84
2018-09-09T09:37:28.126Z,29.06
2018-09-09T09:39:57.093Z,29.23
2018-09-09T09:42:26.093Z,29.43
2018-09-09T09:44:55.488Z,29.44
2018-09-09T09:47:24.537Z,29.55
2018-09-09T09:49:56.686Z,29.35
2018-09-09T09:52:25.615Z,29.43
2018-09-09T09:54:54.516Z,29.57
2018-09-09T09:57:23.492Z,29.50
2018-09-09T09:59:52.483Z,29.62
2018-09-09T10:02:21.352Z,29.65
2018-09-09T10:04:53.486Z,29.49
2018-09-09T10:07:22.332Z,29.52
2018-09-09T10:09:51.194Z,29.65
2018-09-09T10:12:20.136Z,29.67
2018-09-09T10:14:49.080Z,29.70
2018-09-09T10:17:18.941Z,29.88
2018-09-09T10:19:47.870Z,29.82
2018-09-09T10:22:16.955Z,29.91
2018-09-09T10:24:45.821Z,30.21
2018-09-09T10:27:15.320Z,30.54
2018-09-09T10:29:44.318Z,30.62
2018-09-09T10:32:13.225Z,30.36
2018-09-09T10:35:07.319Z,30.37
2018-09-09T10:37:56.911Z,30.15
2018-09-09T10:40:26.252Z,30.40
2018-09-09T10:42:55.317Z,30.45
2018-09-09T10:45:24.187Z,30.12
2018-09-09T10:47:53.352Z,29.98
2018-09-09T10:50:22.198Z,30.06
2018-09-09T10:52:51.231Z,30.18
2018-09-09T10:55:20.258Z,29.97
2018-09-09T10:57:49.092Z,29.79
2018-09-09T11:00:18.081Z,29.76
2018-09-09T11:02:48.506Z,30.00
2018-09-09T11:05:17.429Z,30.14
2018-09-09T11:07:46.309Z,30.12
2018-09-09T11:10:15.307Z,30.24
2018-09-09T11:12:44.152Z,30.19
2018-09-09T11:15:13.104Z,30.26
2018-09-09T11:17:45.109Z,30.26
2018-09-09T11:20:14.012Z,30.36
2018-09-09T11:22:42.928Z,30.35
2018-09-09T11:25:12.861Z,30.14
2018-09-09T11:27:41.736Z,30.18
2018-09-09T11:30:10.809Z,30.00
2018-09-09T11:32:42.636Z,29.87
2018-09-09T11:35:11.522Z,29.77
2018-09-09T11:37:40.325Z,30.04
2018-09-09T11:40:09.413Z,30.18
2018-09-09T11:42:38.429Z,30.37
2018-09-09T11:45:07.353Z,30.51
2018-09-09T11:47:36.374Z,30.73
2018-09-09T11:50:05.448Z,30.67
2018-09-09T11:52:34.489Z,30.67
2018-09-09T11:55:03.427Z,30.64
2018-09-09T11:57:32.468Z,30.83
2018-09-09T12:00:01.399Z,30.51
2018-09-09T12:02:31.366Z,30.55
2018-09-09T12:05:00.342Z,30.46
2018-09-09T12:07:29.332Z,30.42
2018-09-09T12:10:01.831Z,30.42
2018-09-09T12:12:30.589Z,30.46
2018-09-09T12:14:59.895Z,30.37
2018-09-09T12:17:29.020Z,30.36
2018-09-09T12:19:58.075Z,30.29
2018-09-09T12:22:27.098Z,30.37
2018-09-09T12:24:56.035Z,30.57
2018-09-09T12:27:24.961Z,30.60
2018-09-09T12:29:53.806Z,30.49
2018-09-09T12:32:22.912Z,30.41
2018-09-09T12:34:51.632Z,30.45
2018-09-09T12:37:20.714Z,30.49
2018-09-09T12:39:50.128Z,30.61
2018-09-09T12:42:19.136Z,30.43
2018-09-09T12:44:58.118Z,30.28
2018-09-09T12:47:32.115Z,30.31
2018-09-09T12:50:01.712Z,30.29
2018-09-09T12:52:30.672Z,30.14
2018-09-09T12:54:59.745Z,30.02
2018-09-09T12:57:29.702Z,30.09
2018-09-09T12:59:58.639Z,30.16
2018-09-09T13:02:27.816Z,30.20
2018-09-09T13:04:58.382Z,30.15
2018-09-09T13:07:27.503Z,30.18
2018-09-09T13:09:56.270Z,30.25
2018-09-09T13:12:28.143Z,30.30
2018-09-09T13:14:57.077Z,30.27
2018-09-09T13:17:26.014Z,30.29
2018-09-09T13:20:06.433Z,30.28
2018-09-09T13:22:35.349Z,30.24
2018-09-09T13:25:04.298Z,30.39
2018-09-09T13:27:33.725Z,30.44
2018-09-09T13:30:02.614Z,30.44
2018-09-09T13:32:31.532Z,30.56
2018-09-09T13:35:00.914Z,30.50
2018-09-09T13:37:29.946Z,30.60
2018-09-09T13:39:59.892Z,30.52
2018-09-09T13:42:29.278Z,30.57
2018-09-09T13:44:58.724Z,30.65
2018-09-09T13:47:27.636Z,30.72
2018-09-09T13:49:56.739Z,30.86
2018-09-09T13:52:25.712Z,30.93
2018-09-09T13:54:54.728Z,31.02
2018-09-09T13:57:23.965Z,31.13
2018-09-09T13:59:52.828Z,31.14
2018-09-09T14:02:21.805Z,31.06
2018-09-09T14:04:51.079Z,31.03
2018-09-09T14:07:20.053Z,31.02
2018-09-09T14:09:49.070Z,31.19
2018-09-09T14:12:18.366Z,31.17
2018-09-09T14:14:47.253Z,31.08
2018-09-09T14:17:16.176Z,31.13
2018-09-09T14:19:45.638Z,31.12
2018-09-09T14:22:18.274Z,31.02
2018-09-09T14:24:47.533Z,30.94
2018-09-09T14:27:16.392Z,30.93
2018-09-09T14:29:45.970Z,31.00
2018-09-09T14:32:14.857Z,30.94
2018-09-09T14:34:43.817Z,30.95
2018-09-09T14:37:13.122Z,30.87
2018-09-09T14:39:42.493Z,30.84
2018-09-09T14:42:11.602Z,30.81
2018-09-09T14:44:40.438Z,30.68
2018-09-09T14:47:09.579Z,30.57
2018-09-09T14:49:38.487Z,30.46
2018-09-09T14:52:07.529Z,30.37
2018-09-09T14:54:37.523Z,30.24
2018-09-09T14:57:09.480Z,30.17
2018-09-09T14:59:38.691Z,30.07
2018-09-09T15:02:07.696Z,29.96
2018-09-09T15:04:36.693Z,29.95
2018-09-09T15:07:05.914Z,29.84
2018-09-09T15:09:34.874Z,29.67
2018-09-09T15:12:04.634Z,29.65
2018-09-09T15:14:33.594Z,29.59
2018-09-09T15:17:02.428Z,29.60
2018-09-09T15:19:31.384Z,29.50
2018-09-09T15:22:00.340Z,29.45
2018-09-09T15:24:29.900Z,29.34
2018-09-09T15:26:59.827Z,29.32
2018-09-09T15:29:28.886Z,29.27
2018-09-09T15:31:57.758Z,29.16
2018-09-09T15:34:27.183Z,29.11
2018-09-09T15:36:56.952Z,29.12
2018-09-09T15:39:25.963Z,29.10
2018-09-09T15:41:55.315Z,28.99
2018-09-09T15:44:24.226Z,28.98
2018-09-09T15:46:56.986Z,28.91
2018-09-09T15:49:29.614Z,28.84
2018-09-09T15:51:58.897Z,28.79
2018-09-09T15:54:27.789Z,28.73
2018-09-09T15:56:56.617Z,28.65
2018-09-09T15:59:25.582Z,28.56
2018-09-09T16:01:55.475Z,28.42
2018-09-09T16:08:07.158Z,28.22
2018-09-09T16:10:37.248Z,28.13
2018-09-09T16:13:07.112Z,28.05
2018-09-09T16:15:36.022Z,28.02
2018-09-09T16:18:05.359Z,27.94
2018-09-09T16:20:34.207Z,27.87
2018-09-09T16:23:03.192Z,27.79
2018-09-09T16:25:32.429Z,27.70
2018-09-09T16:28:01.354Z,27.64
2018-09-09T16:30:30.328Z,27.60
2018-09-09T16:32:59.281Z,27.52
2018-09-09T16:35:28.160Z,27.41
2018-09-09T16:37:57.033Z,27.32
2018-09-09T16:40:26.092Z,27.26
2018-09-09T16:42:55.131Z,27.20
2018-09-09T16:45:24.109Z,27.09
2018-09-09T16:47:53.457Z,27.02
2018-09-09T16:50:23.395Z,26.92
2018-09-09T16:52:52.258Z,26.85
2018-09-09T16:55:37.268Z,26.68
2018-09-09T16:58:06.363Z,26.56
2018-09-09T17:00:35.314Z,26.61
2018-09-09T17:03:04.821Z,26.54
2018-09-09T17:05:44.567Z,26.44
2018-09-09T17:08:13.833Z,26.31
2018-09-09T17:10:42.829Z,26.19
2018-09-09T17:13:11.804Z,26.13
2018-09-09T17:15:40.675Z,26.10
2018-09-09T17:18:09.672Z,26.00
2018-09-09T17:20:38.848Z,25.92
2018-09-09T17:23:07.960Z,25.86
2018-09-09T17:25:36.926Z,25.83
2018-09-09T17:28:05.992Z,25.78
2018-09-09T17:30:34.963Z,25.75
2018-09-09T17:33:03.959Z,25.70
2018-09-09T17:35:32.821Z,25.66
2018-09-09T17:38:01.873Z,25.60
2018-09-09T17:40:30.838Z,25.58
2018-09-09T17:42:59.749Z,25.53
2018-09-09T17:45:29.493Z,25.49
2018-09-09T17:48:05.196Z,25.45
2018-09-09T17:50:34.550Z,25.39
2018-09-09T17:53:03.710Z,25.36
2018-09-09T17:55:34.269Z,25.34
2018-09-09T17:58:06.563Z,25.33
2018-09-09T18:00:35.572Z,25.30
2018-09-09T18:03:05.491Z,25.30
2018-09-09T18:05:38.033Z,25.31
2018-09-09T18:08:13.105Z,25.33
2018-09-09T18:10:42.871Z,25.35
2018-09-09T18:13:13.025Z,25.38
2018-09-09T18:15:42.082Z,25.42
2018-09-09T18:18:12.590Z,25.41
2018-09-09T18:20:42.198Z,25.43
2018-09-09T18:23:15.821Z,25.39
2018-09-09T18:25:46.941Z,25.33
2018-09-09T18:28:20.268Z,25.27
2018-09-09T18:30:49.158Z,25.21
2018-09-09T18:33:18.175Z,25.16
2018-09-09T18:35:47.580Z,25.08
2018-09-09T18:38:19.927Z,25.06
2018-09-09T18:40:49.827Z,25.03
2018-09-09T18:43:18.866Z,24.94
2018-09-09T18:45:48.113Z,25.01
2018-09-09T18:48:23.683Z,24.99
2018-09-09T18:51:00.566Z,24.95
2018-09-09T18:53:37.082Z,24.91
2018-09-09T18:56:06.196Z,24.89
2018-09-09T18:58:35.450Z,24.85
2018-09-09T19:01:04.591Z,24.83
2018-09-09T19:03:33.684Z,24.81
2018-09-09T19:10:07.907Z,24.66
2018-09-09T19:12:36.986Z,24.60
2018-09-09T19:15:06.277Z,24.54
2018-09-09T19:17:35.366Z,24.50
2018-09-09T19:20:04.469Z,24.44
2018-09-09T19:22:33.513Z,24.39
2018-09-09T19:25:02.738Z,24.37
2018-09-09T19:27:33.805Z,24.38
2018-09-09T19:30:02.935Z,24.36
2018-09-09T19:32:31.934Z,24.43
2018-09-09T19:35:01.084Z,24.40
2018-09-09T19:37:30.668Z,24.44
2018-09-09T19:39:59.663Z,24.44
2018-09-09T19:42:28.866Z,24.43
2018-09-09T19:45:04.761Z,24.44
2018-09-09T19:47:34.350Z,24.43
2018-09-09T19:50:04.494Z,24.41
2018-09-09T19:52:38.393Z,24.37
2018-09-09T19:55:07.706Z,24.31
2018-09-09T19:57:37.146Z,24.29
2018-09-09T20:00:12.348Z,24.29
2018-09-09T20:02:41.308Z,24.16
2018-09-09T20:05:10.193Z,24.16
2018-09-09T20:07:45.409Z,24.11
2018-09-09T20:10:14.524Z,24.07
2018-09-09T20:12:44.602Z,24.04
2018-09-09T20:15:13.817Z,23.97
2018-09-09T20:17:42.884Z,23.91
2018-09-09T20:20:15.313Z,23.89
2018-09-09T20:22:44.590Z,23.84
2018-09-09T20:25:13.640Z,23.80
2018-09-09T20:27:43.623Z,23.81
2018-09-09T20:30:17.858Z,23.79
2018-09-09T20:32:46.925Z,23.78
2018-09-09T20:35:16.525Z,23.75
2018-09-09T20:37:49.425Z,23.74
2018-09-09T20:40:18.619Z,23.69
2018-09-09T20:42:48.927Z,23.60
2018-09-09T20:45:25.818Z,23.59
2018-09-09T20:48:01.714Z,23.53
2018-09-09T20:50:31.142Z,23.46
2018-09-09T20:53:00.295Z,23.40
2018-09-09T20:55:29.622Z,23.36
2018-09-09T20:57:59.803Z,23.33
2018-09-09T21:05:45.177Z,23.15
2018-09-09T21:08:15.469Z,23.20
2018-09-09T21:10:56.530Z,23.16
2018-09-09T21:13:25.806Z,23.14
2018-09-09T21:15:54.894Z,23.11
2018-09-09T21:18:24.995Z,23.07
2018-09-09T21:20:54.521Z,23.08
2018-09-09T21:23:23.594Z,23.05
2018-09-09T21:25:53.675Z,23.03
2018-09-09T21:28:22.992Z,22.99
2018-09-09T21:30:51.987Z,22.96
2018-09-09T21:33:20.997Z,22.91
2018-09-09T21:35:50.092Z,22.94
2018-09-09T21:38:18.856Z,22.93
2018-09-09T21:40:47.769Z,22.90
2018-09-09T21:43:16.976Z,22.88
2018-09-09T21:45:46.113Z,22.85
2018-09-09T21:48:15.113Z,22.87
2018-09-09T21:50:44.582Z,22.83
2018-09-09T21:53:17.437Z,22.81
2018-09-09T21:55:46.849Z,22.81
2018-09-09T21:58:18.921Z,22.74
2018-09-09T22:03:42.217Z,22.73
2018-09-09T22:06:12.069Z,22.75
2018-09-09T22:08:41.025Z,22.74
2018-09-09T22:11:09.908Z,22.66
2018-09-09T22:13:39.389Z,22.67
2018-09-09T22:16:08.411Z,22.64
2018-09-09T22:18:37.388Z,22.65
2018-09-09T22:21:12.231Z,22.65
2018-09-09T22:23:42.401Z,22.65
2018-09-09T22:26:18.481Z,22.63
2018-09-09T22:28:48.457Z,22.60
2018-09-09T22:31:22.329Z,22.50
2018-09-09T22:33:55.359Z,22.52
2018-09-09T22:36:25.345Z,22.48
2018-09-09T22:38:55.050Z,22.54
2018-09-09T22:41:24.195Z,22.51
2018-09-09T22:44:00.332Z,22.55
2018-09-09T22:46:30.022Z,22.52
2018-09-09T22:48:58.973Z,22.53
2018-09-09T22:51:28.142Z,22.53
2018-09-09T22:53:56.960Z,22.56
2018-09-09T22:56:25.885Z,22.56
2018-09-09T22:59:04.090Z,22.59
2018-09-09T23:01:37.804Z,22.58
2018-09-09T23:04:07.346Z,22.59
2018-09-09T23:09:58.790Z,22.46
2018-09-09T23:12:27.765Z,22.42
2018-09-09T23:14:56.811Z,22.43
2018-09-09T23:17:25.972Z,22.38
2018-09-09T23:19:54.984Z,22.36
2018-09-09T23:22:23.832Z,22.34
2018-09-09T23:24:53.328Z,22.32
2018-09-09T23:27:22.236Z,22.30
2018-09-09T23:29:51.087Z,22.27
2018-09-09T23:32:20.401Z,22.21
2018-09-09T23:34:49.305Z,22.18
2018-09-09T23:37:18.198Z,22.18
2018-09-09T23:39:47.512Z,22.18
2018-09-09T23:42:16.412Z,22.19
2018-09-09T23:44:45.547Z,22.16
2018-09-09T23:47:14.647Z,22.27
2018-09-09T23:49:43.606Z,22.24
2018-09-09T23:52:12.596Z,22.17
2018-09-09T23:54:41.960Z,22.24
2018-09-09T23:57:11.001Z,22.24
2018-09-09T23:59:39.958Z,22.26
